Quick Links (Output Below):   Max & Min Temps   /   Climate Reports   /   Zone Forecasts
River Forecasts   /   Forestry Forecasts   /   Aviation Forecasts   /   Radars   /   Features

Terminal Aerodrome Forecast (Little Rock)

Pick a Site:
Arkadelphia | El Dorado | Fayetteville | Fort Smith | Harrison | Highfill | Hot Springs | Jonesboro
Little Rock | Monticello | Mountain Home | Pine Bluff | Texarkana
 Forecast 

KLIT 242330Z 2500/2524 15004KT P6SM SCT250
     FM251500 VRB04KT P6SM SCT250
     FM252200 VRB04KT P6SM BKN100=


 Latest METARs (Observations) 
How to Decode METARs
03Z KLIT 250253Z 00000KT 10SM FEW120 27/22 A3002 RMK AO2 SLP163
         T02670217 53015
         
02Z KLIT 250153Z 00000KT 10SM CLR 27/22 A2999 RMK AO2 SLP156
         T02720217
         
01Z KLIT 250053Z 16003KT 10SM FEW250 28/22 A2997 RMK AO2 SLP149
         T02780217
         
00Z KLIT 242353Z 16004KT 10SM FEW030 FEW050 FEW100 SCT250 30/21 A2997
         RMK AO2 SLP148 FU FEW030 FU LYR NW-N-E TCU DSNT E T03000211
         10344 20300 56010
         
***** Today's Observations (Above) *****


23Z KLIT 242253Z 17006KT 10SM FEW030 FEW050 FEW150 SCT250 33/19 A2998
         RMK AO2 SLP150 FU FEW030 FU LYR N-E TCU DSNT NE-E
         T03280189
         
22Z KLIT 242153Z 17007KT 10SM FEW050 FEW080 SCT250 34/18 A2999 RMK AO2
         SLP153 FU VSB DSNT NE-E TCU DSNT E AND W T03390183
         
21Z KLIT 242053Z 17006KT 10SM FEW050 FEW080 34/19 A3000 RMK AO2 SLP158
         FU VSB DSNT NE-E TCU DSNT W T03390189 56023
         
20Z KLIT 241953Z 19009KT 10SM FEW046 34/19 A3002 RMK AO2 SLP164
         T03390194
         
19Z KLIT 241853Z 17008KT 10SM FEW046 34/19 A3004 RMK AO2 SLP173
         T03390194
         
18Z KLIT 241753Z 14008KT 10SM FEW035 33/21 A3007 RMK AO2 SLP182
         T03330206 10339 20228 58006
         
***** Yesterday's Observations (Above) *****


Back to Main Page
http://www.srh.noaa.gov/lzk/qfcst.php

USA.gov is the U.S. government's official web portal to all federal, state and local government web resources and services.